Time;durP1;ratioP1;P1;durP2;ratioP2;P2;SDS_P1;SDS_P2;PMS_P1;PMS_P2;Temp;Humidity;BMP_temperature;BMP_pressure;BME280_temperature;BME280_humidity;BME280_pressure;Samples;Min_cycle;Max_cycle;Signal;HPM_P1;HPM_P2
2022/03/10 00:00:21;;;;;;;0.20;0.20;;;;;;;;;;5075898;28;20206;-65
2022/03/10 00:02:47;;;;;;;0.10;0.10;;;;;;;;;;5098680;28;20237;-65
2022/03/10 00:05:15;;;;;;;0.10;0.10;;;;;;;;;;5075073;28;20206;-65
2022/03/10 00:07:41;;;;;;;0.20;0.20;;;;;;;;;;5098921;28;20195;-64
2022/03/10 00:10:09;;;;;;;0.17;0.17;;;;;;;;;;5073816;28;20226;-65
2022/03/10 00:12:36;;;;;;;0.10;0.10;;;;;;;;;;5099564;28;20190;-64
2022/03/10 00:15:03;;;;;;;0.20;0.20;;;;;;;;;;5084574;28;20505;-64
2022/03/10 00:17:29;;;;;;;0.10;0.10;;;;;;;;;;5089754;28;20243;-64
2022/03/10 00:19:56;;;;;;;0.10;0.10;;;;;;;;;;5084318;28;20414;-66
2022/03/10 00:22:23;;;;;;;0.10;0.10;;;;;;;;;;5089692;28;20243;-63
2022/03/10 00:24:49;;;;;;;0.10;0.10;;;;;;;;;;5084029;28;20237;-64
2022/03/10 00:27:16;;;;;;;0.13;0.13;;;;;;;;;;5089574;28;20245;-65
2022/03/10 00:29:43;;;;;;;0.20;0.20;;;;;;;;;;5084291;28;20272;-64
2022/03/10 00:32:09;;;;;;;0.10;0.10;;;;;;;;;;5089333;28;20486;-64
2022/03/10 00:34:35;;;;;;;0.10;0.10;;;;;;;;;;5084227;28;20341;-65
2022/03/10 00:37:02;;;;;;;0.10;0.10;;;;;;;;;;5088724;28;20264;-64
2022/03/10 00:39:28;;;;;;;0.10;0.10;;;;;;;;;;5084238;28;20421;-65
2022/03/10 00:41:54;;;;;;;0.10;0.10;;;;;;;;;;5087631;28;20241;-65
2022/03/10 00:44:22;;;;;;;0.10;0.10;;;;;;;;;;5085314;28;20205;-64
2022/03/10 00:46:48;;;;;;;0.10;0.10;;;;;;;;;;5086903;28;20497;-65
2022/03/10 00:49:14;;;;;;;0.10;0.10;;;;;;;;;;5085486;28;20223;-65
2022/03/10 00:51:40;;;;;;;0.20;0.20;;;;;;;;;;5085857;28;20409;-64
2022/03/10 00:54:07;;;;;;;0.20;0.20;;;;;;;;;;5086763;28;20214;-65
2022/03/10 00:56:33;;;;;;;0.10;0.10;;;;;;;;;;5084702;28;20273;-64
2022/03/10 00:58:59;;;;;;;0.17;0.17;;;;;;;;;;5087735;28;20217;-65
2022/03/10 01:01:27;;;;;;;0.10;0.10;;;;;;;;;;5083707;28;20239;-64
2022/03/10 01:03:53;;;;;;;0.10;0.10;;;;;;;;;;5088557;28;20277;-65
2022/03/10 01:06:19;;;;;;;0.17;0.17;;;;;;;;;;5082624;28;20244;-65
2022/03/10 01:08:45;;;;;;;0.57;0.57;;;;;;;;;;5089246;28;20227;-65
2022/03/10 01:11:12;;;;;;;0.20;0.20;;;;;;;;;;5081792;28;20309;-64
2022/03/10 01:13:38;;;;;;;0.10;0.10;;;;;;;;;;5090374;28;20430;-64
2022/03/10 01:16:04;;;;;;;0.10;0.10;;;;;;;;;;5080374;28;20240;-65
2022/03/10 01:18:32;;;;;;;0.20;0.20;;;;;;;;;;5091096;28;20210;-64
2022/03/10 01:20:58;;;;;;;0.10;0.10;;;;;;;;;;5078627;28;20238;-65
2022/03/10 01:23:24;;;;;;;0.10;0.10;;;;;;;;;;5091867;28;20203;-65
2022/03/10 01:25:51;;;;;;;0.10;0.10;;;;;;;;;;5078489;28;20318;-66
2022/03/10 01:28:17;;;;;;;0.10;0.10;;;;;;;;;;5092484;28;20203;-64
2022/03/10 01:30:43;;;;;;;0.10;0.10;;;;;;;;;;5077708;28;20248;-65
2022/03/10 01:33:09;;;;;;;0.10;0.10;;;;;;;;;;5093532;28;20229;-65
2022/03/10 01:35:37;;;;;;;0.10;0.10;;;;;;;;;;5076675;28;20478;-65
2022/03/10 01:38:04;;;;;;;0.10;0.10;;;;;;;;;;5094240;28;20244;-66
2022/03/10 01:40:30;;;;;;;0.20;0.20;;;;;;;;;;5076002;28;20300;-64
2022/03/10 01:42:56;;;;;;;0.20;0.20;;;;;;;;;;5094830;28;20215;-64
2022/03/10 01:45:22;;;;;;;0.17;0.17;;;;;;;;;;5075007;28;20433;-65
2022/03/10 01:47:49;;;;;;;0.20;0.20;;;;;;;;;;5096021;28;20479;-65
2022/03/10 01:50:15;;;;;;;0.20;0.20;;;;;;;;;;5073449;28;20222;-64
2022/03/10 01:52:43;;;;;;;0.20;0.20;;;;;;;;;;5096613;28;20195;-64
2022/03/10 01:55:10;;;;;;;0.20;0.20;;;;;;;;;;5072917;28;20213;-64
2022/03/10 01:57:36;;;;;;;0.10;0.10;;;;;;;;;;5097309;28;20194;-64
2022/03/10 02:00:03;;;;;;;0.10;0.10;;;;;;;;;;5082261;28;20202;-64
2022/03/10 02:02:29;;;;;;;0.20;0.20;;;;;;;;;;5087885;28;20266;-65
2022/03/10 02:04:55;;;;;;;0.10;0.10;;;;;;;;;;5082394;28;20237;-64
2022/03/10 02:10:21;;;;;;;0.20;0.20;;;;;;;;;;5030150;28;20207;-65
2022/03/10 02:12:48;;;;;;;0.10;0.10;;;;;;;;;;5040331;28;20197;-64
2022/03/10 02:18:00;;;;;;;0.20;0.20;;;;;;;;;;5094058;28;20265;-65
2022/03/10 02:20:26;;;;;;;0.10;0.10;;;;;;;;;;5074881;28;20267;-65
2022/03/10 02:22:54;;;;;;;0.20;0.20;;;;;;;;;;5095016;28;20204;-64
2022/03/10 02:25:21;;;;;;;0.20;0.20;;;;;;;;;;5073612;28;20221;-64
2022/03/10 02:27:49;;;;;;;0.20;0.20;;;;;;;;;;5095857;28;20441;-64
2022/03/10 02:30:15;;;;;;;0.20;0.20;;;;;;;;;;5073296;28;20287;-64
2022/03/10 02:32:42;;;;;;;0.20;0.20;;;;;;;;;;5098147;28;20210;-64
2022/03/10 02:35:08;;;;;;;0.10;0.10;;;;;;;;;;5076021;28;20209;-65
2022/03/10 02:37:35;;;;;;;0.20;0.20;;;;;;;;;;5101369;28;20206;-65
2022/03/10 02:40:05;;;;;;;0.20;0.20;;;;;;;;;;5085985;28;20201;-64
2022/03/10 02:42:32;;;;;;;0.20;0.20;;;;;;;;;;5074274;28;20285;-65
2022/03/10 02:44:58;;;;;;;0.20;0.20;;;;;;;;;;5085796;28;20234;-64
2022/03/10 02:47:25;;;;;;;0.20;0.20;;;;;;;;;;5091283;28;20236;-65
2022/03/10 02:49:51;;;;;;;0.17;0.17;;;;;;;;;;5085840;28;20428;-65
2022/03/10 02:52:18;;;;;;;0.20;0.20;;;;;;;;;;5091222;28;20265;-65
2022/03/10 02:54:44;;;;;;;0.20;0.20;;;;;;;;;;5085371;28;20319;-65
2022/03/10 02:57:12;;;;;;;0.10;0.10;;;;;;;;;;5091223;28;20240;-64
2022/03/10 02:59:38;;;;;;;0.20;0.20;;;;;;;;;;5085929;28;20230;-65
2022/03/10 03:02:04;;;;;;;0.10;0.10;;;;;;;;;;5090895;28;20244;-64
2022/03/10 03:04:30;;;;;;;0.20;0.20;;;;;;;;;;5085744;28;20259;-64
2022/03/10 03:06:57;;;;;;;0.10;0.10;;;;;;;;;;5089684;28;20290;-65
2022/03/10 03:09:23;;;;;;;0.20;0.20;;;;;;;;;;5086296;28;20224;-64
2022/03/10 03:11:49;;;;;;;0.20;0.20;;;;;;;;;;5088687;28;20469;-64
2022/03/10 03:14:17;;;;;;;0.10;0.10;;;;;;;;;;5087582;28;20421;-63
2022/03/10 03:16:43;;;;;;;0.20;0.20;;;;;;;;;;5087672;28;20454;-64
2022/03/10 03:19:09;;;;;;;0.10;0.10;;;;;;;;;;5088284;28;20201;-64
2022/03/10 03:21:35;;;;;;;0.20;0.20;;;;;;;;;;5086615;28;20237;-64
2022/03/10 03:24:02;;;;;;;0.10;0.10;;;;;;;;;;5089058;28;20522;-64
2022/03/10 03:26:28;;;;;;;0.20;0.20;;;;;;;;;;5085682;28;20289;-64
2022/03/10 03:28:54;;;;;;;0.20;0.20;;;;;;;;;;5089989;28;20208;-65
2022/03/10 03:31:22;;;;;;;0.20;0.20;;;;;;;;;;5084659;28;20245;-65
2022/03/10 03:33:50;;;;;;;0.10;0.10;;;;;;;;;;5090923;28;20251;-64
2022/03/10 03:36:16;;;;;;;0.20;0.20;;;;;;;;;;5083892;28;20246;-65
2022/03/10 03:38:42;;;;;;;0.20;0.20;;;;;;;;;;5091342;28;20504;-65
2022/03/10 03:41:08;;;;;;;0.20;0.20;;;;;;;;;;5082686;28;20257;-64
2022/03/10 03:43:35;;;;;;;0.20;0.20;;;;;;;;;;5091217;28;20258;-64
2022/03/10 03:46:01;;;;;;;0.20;0.20;;;;;;;;;;5081773;28;20248;-65
2022/03/10 03:48:28;;;;;;;0.10;0.10;;;;;;;;;;5093464;28;20204;-64
2022/03/10 03:50:55;;;;;;;0.20;0.20;;;;;;;;;;5080681;28;20474;-64
2022/03/10 03:53:21;;;;;;;0.20;0.20;;;;;;;;;;5093847;28;20206;-65
2022/03/10 03:55:47;;;;;;;0.20;0.20;;;;;;;;;;5079674;28;20286;-64
2022/03/10 03:58:13;;;;;;;0.20;0.20;;;;;;;;;;5095046;28;20214;-64
2022/03/10 04:00:40;;;;;;;0.20;0.20;;;;;;;;;;5078783;28;20266;-64
2022/03/10 04:03:07;;;;;;;0.20;0.20;;;;;;;;;;5095447;28;20234;-64
2022/03/10 04:05:34;;;;;;;0.20;0.20;;;;;;;;;;5078081;28;20541;-64
2022/03/10 04:08:00;;;;;;;0.13;0.13;;;;;;;;;;5096468;28;20264;-63
2022/03/10 04:10:27;;;;;;;0.13;0.13;;;;;;;;;;5077027;28;20557;-64
2022/03/10 04:12:53;;;;;;;0.20;0.20;;;;;;;;;;5097245;28;20250;-64
2022/03/10 04:15:19;;;;;;;0.20;0.20;;;;;;;;;;5076034;28;20205;-64
2022/03/10 04:17:46;;;;;;;0.20;0.20;;;;;;;;;;5098120;28;20208;-64
2022/03/10 04:20:13;;;;;;;0.13;0.13;;;;;;;;;;5074685;28;20318;-64
2022/03/10 04:22:41;;;;;;;0.20;0.20;;;;;;;;;;5098555;28;20193;-64
2022/03/10 04:25:08;;;;;;;0.20;0.20;;;;;;;;;;5074014;28;20374;-63
2022/03/10 04:27:34;;;;;;;0.20;0.20;;;;;;;;;;5099323;28;20246;-64
2022/03/10 04:30:00;;;;;;;0.20;0.20;;;;;;;;;;5084093;28;20268;-64
2022/03/10 04:32:27;;;;;;;0.10;0.10;;;;;;;;;;5089347;28;20241;-64
2022/03/10 04:34:53;;;;;;;0.10;0.10;;;;;;;;;;5084176;28;20269;-64
2022/03/10 04:37:19;;;;;;;0.20;0.20;;;;;;;;;;5089248;28;20246;-65
2022/03/10 04:39:47;;;;;;;0.20;0.20;;;;;;;;;;5084267;28;20496;-64
2022/03/10 04:42:13;;;;;;;0.20;0.20;;;;;;;;;;5089095;28;20555;-64
2022/03/10 04:44:39;;;;;;;0.20;0.20;;;;;;;;;;5084121;28;20257;-64
2022/03/10 04:47:05;;;;;;;0.60;0.60;;;;;;;;;;5088920;28;20239;-65
2022/03/10 04:49:32;;;;;;;0.67;0.67;;;;;;;;;;5084011;28;20266;-64
2022/03/10 04:51:58;;;;;;;0.20;0.20;;;;;;;;;;5087987;28;20239;-64
2022/03/10 04:54:24;;;;;;;0.17;0.17;;;;;;;;;;5084563;28;20280;-65
2022/03/10 04:56:52;;;;;;;0.20;0.20;;;;;;;;;;5086338;28;20243;-64
2022/03/10 04:59:18;;;;;;;0.10;0.10;;;;;;;;;;5085737;28;20204;-64
2022/03/10 05:01:44;;;;;;;0.20;0.20;;;;;;;;;;5085460;28;20243;-65
2022/03/10 05:04:10;;;;;;;0.20;0.20;;;;;;;;;;5086636;28;20203;-64
2022/03/10 05:06:37;;;;;;;0.10;0.10;;;;;;;;;;5084923;28;20240;-64
2022/03/10 05:09:03;;;;;;;0.20;0.20;;;;;;;;;;5087014;28;20211;-64
2022/03/10 05:11:29;;;;;;;0.20;0.20;;;;;;;;;;5083417;28;20240;-65
2022/03/10 05:13:57;;;;;;;0.20;0.20;;;;;;;;;;5087519;28;20203;-64
2022/03/10 05:16:23;;;;;;;0.20;0.20;;;;;;;;;;5083101;28;20241;-63
2022/03/10 05:18:49;;;;;;;0.20;0.20;;;;;;;;;;5088570;28;20204;-64
2022/03/10 05:21:16;;;;;;;0.20;0.20;;;;;;;;;;5081956;28;20234;-64
2022/03/10 05:23:42;;;;;;;0.47;0.47;;;;;;;;;;5089234;28;20222;-64
2022/03/10 05:26:08;;;;;;;0.50;0.50;;;;;;;;;;5081201;28;20462;-64
2022/03/10 05:28:34;;;;;;;0.30;0.30;;;;;;;;;;5090401;28;20229;-64
2022/03/10 05:31:02;;;;;;;0.13;0.13;;;;;;;;;;5080016;28;20285;-64
2022/03/10 05:33:28;;;;;;;0.20;0.20;;;;;;;;;;5091341;28;20272;-64
2022/03/10 05:35:54;;;;;;;0.20;0.20;;;;;;;;;;5079178;28;20299;-65
2022/03/10 05:38:20;;;;;;;0.20;0.20;;;;;;;;;;5092080;28;20276;-65
2022/03/10 05:40:47;;;;;;;0.20;0.20;;;;;;;;;;5078013;28;20276;-64
2022/03/10 05:43:13;;;;;;;0.20;0.20;;;;;;;;;;5093098;28;20204;-64
2022/03/10 05:45:39;;;;;;;0.20;0.20;;;;;;;;;;5076821;28;20251;-64
2022/03/10 05:48:07;;;;;;;0.20;0.20;;;;;;;;;;5094132;28;20253;-65
2022/03/10 05:50:33;;;;;;;0.20;0.20;;;;;;;;;;5076254;28;20276;-65
2022/03/10 05:53:00;;;;;;;0.20;0.20;;;;;;;;;;5094771;28;20205;-64
2022/03/10 05:55:26;;;;;;;0.20;0.20;;;;;;;;;;5075191;28;20248;-65
2022/03/10 05:57:53;;;;;;;0.20;0.20;;;;;;;;;;5095215;28;20208;-64
2022/03/10 06:00:23;;;;;;;0.20;0.20;;;;;;;;;;5074076;28;20222;-64
2022/03/10 06:02:50;;;;;;;0.20;0.20;;;;;;;;;;5095898;28;20262;-64
2022/03/10 06:05:17;;;;;;;0.20;0.20;;;;;;;;;;5073872;28;20208;-64
2022/03/10 06:07:44;;;;;;;0.20;0.20;;;;;;;;;;5099019;28;20250;-65
2022/03/10 06:10:10;;;;;;;0.20;0.20;;;;;;;;;;5076956;28;20324;-66
2022/03/10 06:12:37;;;;;;;0.20;0.20;;;;;;;;;;5101493;28;20223;-65
2022/03/10 06:15:04;;;;;;;0.20;0.20;;;;;;;;;;5086731;28;20212;-64
2022/03/10 06:17:30;;;;;;;0.20;0.20;;;;;;;;;;5074742;28;20288;-64
2022/03/10 06:19:57;;;;;;;0.20;0.20;;;;;;;;;;5086577;28;20205;-66
2022/03/10 06:22:25;;;;;;;0.20;0.20;;;;;;;;;;5091664;28;20303;-66
2022/03/10 06:24:52;;;;;;;0.20;0.20;;;;;;;;;;5086177;28;20214;-65
2022/03/10 06:27:19;;;;;;;0.20;0.20;;;;;;;;;;5091940;28;20238;-65
2022/03/10 06:29:46;;;;;;;0.20;0.20;;;;;;;;;;5086648;28;20214;-65
2022/03/10 06:32:13;;;;;;;0.43;0.43;;;;;;;;;;5091660;28;20243;-65
2022/03/10 06:34:39;;;;;;;0.20;0.20;;;;;;;;;;5086646;28;20259;-64
2022/03/10 06:37:06;;;;;;;0.20;0.20;;;;;;;;;;5091594;28;20247;-66
2022/03/10 06:39:33;;;;;;;0.20;0.20;;;;;;;;;;5086526;28;20439;-66
2022/03/10 06:42:03;;;;;;;1.60;1.50;;;;;;;;;;5090656;28;20238;-64
2022/03/10 06:44:29;;;;;;;0.20;0.20;;;;;;;;;;5086549;28;20213;-64
2022/03/10 06:46:55;;;;;;;0.20;0.20;;;;;;;;;;5090090;28;20300;-66
2022/03/10 06:49:22;;;;;;;0.20;0.20;;;;;;;;;;5087205;28;20203;-65
2022/03/10 06:51:48;;;;;;;1.03;1.03;;;;;;;;;;5089016;28;20238;-65
2022/03/10 06:54:15;;;;;;;0.30;0.30;;;;;;;;;;5087497;28;20454;-64
2022/03/10 06:56:43;;;;;;;0.20;0.20;;;;;;;;;;5088089;28;20239;-65
2022/03/10 06:59:09;;;;;;;0.10;0.10;;;;;;;;;;5088847;28;20372;-64
2022/03/10 07:01:35;;;;;;;0.20;0.20;;;;;;;;;;5087054;28;20313;-64
2022/03/10 07:04:01;;;;;;;0.20;0.20;;;;;;;;;;5089594;28;20267;-65
2022/03/10 07:06:28;;;;;;;0.20;0.20;;;;;;;;;;5085978;28;20238;-64
2022/03/10 07:08:54;;;;;;;0.20;0.20;;;;;;;;;;5090517;28;20310;-64
2022/03/10 07:11:21;;;;;;;0.20;0.20;;;;;;;;;;5084928;28;20244;-64
2022/03/10 07:13:48;;;;;;;0.20;0.20;;;;;;;;;;5091437;28;20281;-65
2022/03/10 07:16:15;;;;;;;0.20;0.20;;;;;;;;;;5084118;28;20289;-65
2022/03/10 07:18:50;;;;;;;0.93;0.93;;;;;;;;;;5091845;28;20249;-66
2022/03/10 07:21:16;;;;;;;0.20;0.20;;;;;;;;;;5084497;28;20238;-64
2022/03/10 07:23:42;;;;;;;0.10;0.10;;;;;;;;;;5091495;28;20203;-66
2022/03/10 07:26:10;;;;;;;0.20;0.20;;;;;;;;;;5083434;28;20247;-65
2022/03/10 07:28:36;;;;;;;0.97;0.97;;;;;;;;;;5092492;28;20204;-64
2022/03/10 07:31:03;;;;;;;0.20;0.20;;;;;;;;;;5082328;28;20258;-63
2022/03/10 07:33:30;;;;;;;0.20;0.20;;;;;;;;;;5093486;28;20228;-66
2022/03/10 07:35:56;;;;;;;0.20;0.20;;;;;;;;;;5081576;28;20240;-65
2022/03/10 07:38:22;;;;;;;0.20;0.20;;;;;;;;;;5093920;28;20205;-65
2022/03/10 07:40:48;;;;;;;0.10;0.10;;;;;;;;;;5080269;28;20258;-64
2022/03/10 07:43:17;;;;;;;0.20;0.20;;;;;;;;;;5094718;28;20513;-65
2022/03/10 07:45:43;;;;;;;0.10;0.10;;;;;;;;;;5079542;28;20245;-64
2022/03/10 07:48:11;;;;;;;0.20;0.20;;;;;;;;;;5095590;28;20206;-64
2022/03/10 07:50:37;;;;;;;0.10;0.10;;;;;;;;;;5078613;28;20234;-65
2022/03/10 07:53:04;;;;;;;0.10;0.10;;;;;;;;;;5096112;28;20252;-64
2022/03/10 07:55:30;;;;;;;0.10;0.10;;;;;;;;;;5077896;28;20462;-64
2022/03/10 07:57:56;;;;;;;0.10;0.10;;;;;;;;;;5096941;28;20212;-67
2022/03/10 08:00:22;;;;;;;0.10;0.10;;;;;;;;;;5076301;28;20203;-64
2022/03/10 08:02:49;;;;;;;0.10;0.10;;;;;;;;;;5097782;28;20199;-64
2022/03/10 08:05:17;;;;;;;0.10;0.10;;;;;;;;;;5075541;28;20203;-65
2022/03/10 08:07:43;;;;;;;0.10;0.10;;;;;;;;;;5098533;28;20217;-64
2022/03/10 08:10:10;;;;;;;0.10;0.10;;;;;;;;;;5074945;28;20210;-65
2022/03/10 08:12:36;;;;;;;0.10;0.10;;;;;;;;;;5099556;28;20215;-64
2022/03/10 08:15:03;;;;;;;0.10;0.10;;;;;;;;;;5084108;28;20211;-64
2022/03/10 08:17:29;;;;;;;0.10;0.10;;;;;;;;;;5089603;28;20302;-60
2022/03/10 08:19:56;;;;;;;0.10;0.10;;;;;;;;;;5084495;28;20404;-60
2022/03/10 08:22:24;;;;;;;0.10;0.10;;;;;;;;;;5089464;28;20446;-59
2022/03/10 08:24:50;;;;;;;0.10;0.10;;;;;;;;;;5084148;28;20222;-59
2022/03/10 08:27:17;;;;;;;0.33;0.33;;;;;;;;;;5089522;28;20246;-60
2022/03/10 08:29:44;;;;;;;0.10;0.10;;;;;;;;;;5083965;28;20208;-60
2022/03/10 08:32:10;;;;;;;0.10;0.10;;;;;;;;;;5089412;28;20572;-59
2022/03/10 08:34:36;;;;;;;0.10;0.10;;;;;;;;;;5084287;28;20252;-59
2022/03/10 08:37:03;;;;;;;0.10;0.10;;;;;;;;;;5088990;28;20248;-60
2022/03/10 08:39:30;;;;;;;0.08;0.08;;;;;;;;;;5084474;28;20215;-59
2022/03/10 08:41:56;;;;;;;0.40;0.40;;;;;;;;;;5087939;28;20238;-60
2022/03/10 08:44:23;;;;;;;0.00;0.00;;;;;;;;;;5084911;28;20233;-58
2022/03/10 08:46:49;;;;;;;0.00;0.00;;;;;;;;;;5087066;28;20256;-59
2022/03/10 08:49:17;;;;;;;0.10;0.10;;;;;;;;;;5085996;28;20422;-58
2022/03/10 08:51:43;;;;;;;0.08;0.08;;;;;;;;;;5086126;28;20238;-59
2022/03/10 08:54:10;;;;;;;0.00;0.00;;;;;;;;;;5086556;28;20231;-59
2022/03/10 08:56:38;;;;;;;0.00;0.00;;;;;;;;;;5085345;28;20291;-60
2022/03/10 08:59:04;;;;;;;0.00;0.00;;;;;;;;;;5086806;28;20218;-59
2022/03/10 09:01:31;;;;;;;0.00;0.00;;;;;;;;;;5084677;28;20231;-59
2022/03/10 09:03:57;;;;;;;0.10;0.10;;;;;;;;;;5088245;28;20204;-60
2022/03/10 09:06:23;;;;;;;0.00;0.00;;;;;;;;;;5082501;28;20246;-60
2022/03/10 09:08:50;;;;;;;0.03;0.03;;;;;;;;;;5089751;28;20437;-59
2022/03/10 09:11:16;;;;;;;0.00;0.00;;;;;;;;;;5081262;28;20493;-60
2022/03/10 09:13:48;;;;;;;0.00;0.00;;;;;;;;;;5090276;28;20204;-60
2022/03/10 09:16:14;;;;;;;0.20;0.20;;;;;;;;;;5081952;28;20238;-59
2022/03/10 09:18:41;;;;;;;0.00;0.00;;;;;;;;;;5089975;28;20203;-60
2022/03/10 09:21:07;;;;;;;0.00;0.00;;;;;;;;;;5080929;28;20250;-59
2022/03/10 09:23:33;;;;;;;0.00;0.00;;;;;;;;;;5090992;28;20393;-59
2022/03/10 09:26:00;;;;;;;0.00;0.00;;;;;;;;;;5079760;28;20313;-60
2022/03/10 09:28:26;;;;;;;0.85;0.85;;;;;;;;;;5091912;28;20261;-59
2022/03/10 09:30:54;;;;;;;0.10;0.10;;;;;;;;;;5079018;28;20465;-60
2022/03/10 09:33:20;;;;;;;0.00;0.00;;;;;;;;;;5092351;28;20265;-59
2022/03/10 09:35:46;;;;;;;0.00;0.00;;;;;;;;;;5078409;28;20242;-59
2022/03/10 09:38:13;;;;;;;1.27;1.27;;;;;;;;;;5093508;28;20227;-60
2022/03/10 09:40:39;;;;;;;0.00;0.00;;;;;;;;;;5077067;28;20242;-61
2022/03/10 09:43:05;;;;;;;0.00;0.00;;;;;;;;;;5093655;28;20203;-60
2022/03/10 09:45:31;;;;;;;0.00;0.00;;;;;;;;;;5076364;28;20246;-60
2022/03/10 09:47:59;;;;;;;0.03;0.03;;;;;;;;;;5095344;28;20486;-60
2022/03/10 09:50:25;;;;;;;0.00;0.00;;;;;;;;;;5074543;28;20214;-60
2022/03/10 09:52:52;;;;;;;0.00;0.00;;;;;;;;;;5097077;28;20318;-60
2022/03/10 09:55:18;;;;;;;0.10;0.10;;;;;;;;;;5074220;28;20388;-60
2022/03/10 09:57:46;;;;;;;0.00;0.00;;;;;;;;;;5097222;28;20191;-61
2022/03/10 10:00:13;;;;;;;0.00;0.00;;;;;;;;;;5073009;28;20215;-60
2022/03/10 10:02:40;;;;;;;0.40;0.40;;;;;;;;;;5097878;28;20376;-60
2022/03/10 10:05:20;;;;;;;0.03;0.03;;;;;;;;;;5074568;28;20235;-60
2022/03/10 10:07:59;;;;;;;0.00;0.00;;;;;;;;;;5082669;28;20289;-58
2022/03/10 10:10:27;;;;;;;0.00;0.00;;;;;;;;;;5075457;28;20490;-59
2022/03/10 10:12:53;;;;;;;0.00;0.00;;;;;;;;;;5095290;28;20233;-60
2022/03/10 10:15:19;;;;;;;0.00;0.00;;;;;;;;;;5074127;28;20203;-60
2022/03/10 10:17:46;;;;;;;0.00;0.00;;;;;;;;;;5096425;28;20191;-59
2022/03/10 10:20:12;;;;;;;0.00;0.00;;;;;;;;;;5073597;28;20274;-60
2022/03/10 10:22:40;;;;;;;0.00;0.00;;;;;;;;;;5097381;28;20188;-60
2022/03/10 10:25:06;;;;;;;0.15;0.15;;;;;;;;;;5072836;28;20211;-60
2022/03/10 10:27:34;;;;;;;1.27;1.17;;;;;;;;;;5097634;28;20223;-60
2022/03/10 10:30:02;;;;;;;0.03;0.03;;;;;;;;;;5082677;28;20274;-59
2022/03/10 10:32:32;;;;;;;0.00;0.00;;;;;;;;;;5087793;28;20538;-61
2022/03/10 10:35:02;;;;;;;0.10;0.10;;;;;;;;;;5082289;28;20231;-59
2022/03/10 10:37:29;;;;;;;0.05;0.05;;;;;;;;;;5087699;28;20437;-64
2022/03/10 10:39:58;;;;;;;0.00;0.00;;;;;;;;;;5082308;28;20338;-64
2022/03/10 10:42:26;;;;;;;0.10;0.10;;;;;;;;;;5087855;28;20237;-66
2022/03/10 10:44:52;;;;;;;0.10;0.10;;;;;;;;;;5082821;28;20249;-64
2022/03/10 10:47:19;;;;;;;0.10;0.10;;;;;;;;;;5087902;28;20245;-65
2022/03/10 10:49:55;;;;;;;0.10;0.10;;;;;;;;;;5082813;28;20511;-64
2022/03/10 10:52:22;;;;;;;0.10;0.10;;;;;;;;;;5087647;28;20279;-64
2022/03/10 10:54:48;;;;;;;0.00;0.00;;;;;;;;;;5086282;28;20203;-65
2022/03/10 10:57:22;;;;;;;0.20;0.20;;;;;;;;;;5091471;28;20632;-64
2022/03/10 10:59:49;;;;;;;0.10;0.10;;;;;;;;;;5086290;28;20215;-63
2022/03/10 11:02:17;;;;;;;0.30;0.30;;;;;;;;;;5091282;28;20461;-64
2022/03/10 11:04:44;;;;;;;1.07;1.07;;;;;;;;;;5086293;28;20205;-65
2022/03/10 11:07:11;;;;;;;0.30;0.30;;;;;;;;;;5091209;28;20314;-63
2022/03/10 11:09:37;;;;;;;0.10;0.10;;;;;;;;;;5085669;28;20522;-66
2022/03/10 11:12:04;;;;;;;0.30;0.30;;;;;;;;;;5091015;28;20235;-65
2022/03/10 11:14:32;;;;;;;0.10;0.10;;;;;;;;;;5085935;28;20202;-66
2022/03/10 11:16:58;;;;;;;0.10;0.10;;;;;;;;;;5090017;28;20267;-65
2022/03/10 11:19:26;;;;;;;0.10;0.10;;;;;;;;;;5086598;28;20257;-66
2022/03/10 11:22:13;;;;;;;0.10;0.10;;;;;;;;;;5089407;28;20301;-65
2022/03/10 11:24:45;;;;;;;0.50;0.50;;;;;;;;;;5080327;28;20243;-63
2022/03/10 11:27:14;;;;;;;0.13;0.13;;;;;;;;;;5091042;28;20275;-65
2022/03/10 11:29:42;;;;;;;0.30;0.30;;;;;;;;;;5085942;28;20238;-65
2022/03/10 11:32:10;;;;;;;0.10;0.10;;;;;;;;;;5090825;28;20241;-63
2022/03/10 11:34:47;;;;;;;0.10;0.10;;;;;;;;;;5085113;28;20227;-64
2022/03/10 11:37:13;;;;;;;0.10;0.10;;;;;;;;;;5090729;28;20247;-65
2022/03/10 11:39:56;;;;;;;0.30;0.30;;;;;;;;;;5085519;28;20204;-65
2022/03/10 11:42:26;;;;;;;0.40;0.40;;;;;;;;;;5090536;28;20281;-65
2022/03/10 11:45:06;;;;;;;0.10;0.10;;;;;;;;;;5085590;28;20297;-65
2022/03/10 11:47:32;;;;;;;0.50;0.50;;;;;;;;;;5073473;28;20249;-65
2022/03/10 11:50:18;;;;;;;0.10;0.10;;;;;;;;;;5085382;28;20245;-65
2022/03/10 11:52:50;;;;;;;0.10;0.10;;;;;;;;;;5084503;28;20220;-65
2022/03/10 11:55:16;;;;;;;0.10;0.10;;;;;;;;;;5076092;28;20192;-65
2022/03/10 11:57:43;;;;;;;0.10;0.10;;;;;;;;;;5098982;28;20192;-64
2022/03/10 12:00:15;;;;;;;0.10;0.10;;;;;;;;;;5079595;28;20297;-65
2022/03/10 12:02:43;;;;;;;0.10;0.10;;;;;;;;;;5099819;28;20221;-65
2022/03/10 12:05:10;;;;;;;0.10;0.10;;;;;;;;;;5074127;28;20513;-66
2022/03/10 12:07:40;;;;;;;0.10;0.10;;;;;;;;;;5099684;28;20389;-64
2022/03/10 12:10:08;;;;;;;0.10;0.10;;;;;;;;;;5074502;28;20213;-64
2022/03/10 12:12:38;;;;;;;0.10;0.10;;;;;;;;;;5099601;28;20215;-65
2022/03/10 12:15:23;;;;;;;0.10;0.10;;;;;;;;;;5079769;28;20306;-66
2022/03/10 12:17:52;;;;;;;0.20;0.20;;;;;;;;;;5084576;28;20283;-64
2022/03/10 12:20:19;;;;;;;0.30;0.30;;;;;;;;;;5075957;28;20248;-64
2022/03/10 12:23:01;;;;;;;0.10;0.10;;;;;;;;;;5097955;28;20189;-64
2022/03/10 12:25:27;;;;;;;0.10;0.10;;;;;;;;;;5076793;28;20240;-64
2022/03/10 12:27:54;;;;;;;0.10;0.10;;;;;;;;;;5097111;28;20246;-65
2022/03/10 12:30:21;;;;;;;0.10;0.10;;;;;;;;;;5075898;28;20232;-65
2022/03/10 12:32:51;;;;;;;0.10;0.10;;;;;;;;;;5097597;28;20385;-64
2022/03/10 12:35:18;;;;;;;0.03;0.03;;;;;;;;;;5075516;28;20232;-64
2022/03/10 12:37:46;;;;;;;0.10;0.10;;;;;;;;;;5097980;28;20253;-64
2022/03/10 12:40:17;;;;;;;0.10;0.10;;;;;;;;;;5074796;28;20203;-66
2022/03/10 12:42:43;;;;;;;0.10;0.10;;;;;;;;;;5098100;28;20361;-64
2022/03/10 12:45:09;;;;;;;0.10;0.10;;;;;;;;;;5074370;28;20208;-65
2022/03/10 12:47:38;;;;;;;0.00;0.00;;;;;;;;;;5099255;28;20199;-65
2022/03/10 12:50:06;;;;;;;0.10;0.10;;;;;;;;;;5082150;28;20204;-67
2022/03/10 12:52:40;;;;;;;0.40;0.40;;;;;;;;;;5099465;28;20527;-64
2022/03/10 12:55:07;;;;;;;0.10;0.10;;;;;;;;;;5074046;28;20192;-67
2022/03/10 12:57:35;;;;;;;0.10;0.10;;;;;;;;;;5098943;28;20206;-66
2022/03/10 13:00:01;;;;;;;0.10;0.10;;;;;;;;;;5083644;28;20264;-65
2022/03/10 13:02:28;;;;;;;0.10;0.10;;;;;;;;;;5089217;28;20238;-65
2022/03/10 13:04:55;;;;;;;0.10;0.10;;;;;;;;;;5083534;28;20211;-64
2022/03/10 13:07:23;;;;;;;0.10;0.10;;;;;;;;;;5089021;28;20245;-65
2022/03/10 13:09:53;;;;;;;0.10;0.10;;;;;;;;;;5084025;28;20216;-64
2022/03/10 13:12:23;;;;;;;0.10;0.10;;;;;;;;;;5088752;28;20255;-67
2022/03/10 13:14:49;;;;;;;0.00;0.00;;;;;;;;;;5083885;28;20210;-67
2022/03/10 13:17:16;;;;;;;0.20;0.20;;;;;;;;;;5088712;28;20245;-65
2022/03/10 13:19:43;;;;;;;0.50;0.50;;;;;;;;;;5083875;28;20203;-65
2022/03/10 13:22:11;;;;;;;0.10;0.10;;;;;;;;;;5088561;28;20448;-67
2022/03/10 13:24:41;;;;;;;0.10;0.10;;;;;;;;;;5083321;28;20271;-64
2022/03/10 13:27:08;;;;;;;0.10;0.10;;;;;;;;;;5088620;28;20239;-66
2022/03/10 13:29:35;;;;;;;0.10;0.10;;;;;;;;;;5083669;28;20203;-64
2022/03/10 13:32:01;;;;;;;1.10;1.10;;;;;;;;;;5087925;28;20248;-66
2022/03/10 13:34:28;;;;;;;0.10;0.10;;;;;;;;;;5083785;28;20304;-65
2022/03/10 13:36:56;;;;;;;0.10;0.10;;;;;;;;;;5087142;28;20442;-65
2022/03/10 13:39:23;;;;;;;3.63;1.30;;;;;;;;;;5084440;28;20206;-65
2022/03/10 13:41:51;;;;;;;0.10;0.10;;;;;;;;;;5086257;28;20241;-65
2022/03/10 13:44:17;;;;;;;0.10;0.10;;;;;;;;;;5085269;28;20498;-65
2022/03/10 13:46:44;;;;;;;0.10;0.10;;;;;;;;;;5085332;28;20268;-66
2022/03/10 13:49:18;;;;;;;0.10;0.10;;;;;;;;;;5086063;28;20203;-65
2022/03/10 13:51:46;;;;;;;0.10;0.10;;;;;;;;;;5085710;28;20244;-67
2022/03/10 13:54:13;;;;;;;0.10;0.10;;;;;;;;;;5085799;28;20223;-66
2022/03/10 13:56:41;;;;;;;1.50;1.33;;;;;;;;;;5084946;28;20246;-65
2022/03/10 13:59:10;;;;;;;0.10;0.10;;;;;;;;;;5086008;28;20213;-64
2022/03/10 14:01:37;;;;;;;0.10;0.10;;;;;;;;;;5084389;28;20247;-64
2022/03/10 14:04:08;;;;;;;0.10;0.10;;;;;;;;;;5086692;28;20242;-64
2022/03/10 14:06:41;;;;;;;0.10;0.10;;;;;;;;;;5084077;28;20234;-65
2022/03/10 14:09:15;;;;;;;0.10;0.10;;;;;;;;;;5086169;28;20212;-66
2022/03/10 14:11:42;;;;;;;0.37;0.37;;;;;;;;;;5084902;28;20237;-65
2022/03/10 14:14:10;;;;;;;0.10;0.10;;;;;;;;;;5085902;28;20258;-65
2022/03/10 14:16:36;;;;;;;0.10;0.10;;;;;;;;;;5084432;28;20299;-65
2022/03/10 14:19:03;;;;;;;0.10;0.10;;;;;;;;;;5086738;28;20207;-65
2022/03/10 14:21:29;;;;;;;0.10;0.10;;;;;;;;;;5083270;28;20250;-66
2022/03/10 14:23:56;;;;;;;0.10;0.10;;;;;;;;;;5087459;28;20204;-65
2022/03/10 14:26:22;;;;;;;0.10;0.10;;;;;;;;;;5082508;28;20565;-66
2022/03/10 14:28:49;;;;;;;0.57;0.57;;;;;;;;;;5090657;28;20274;-61
2022/03/10 14:31:17;;;;;;;0.20;0.20;;;;;;;;;;5085722;28;20312;-63
2022/03/10 14:33:45;;;;;;;1.60;0.87;;;;;;;;;;5093034;28;20242;-63
2022/03/10 14:36:12;;;;;;;0.20;0.20;;;;;;;;;;5084956;28;20284;-65
2022/03/10 14:38:38;;;;;;;0.10;0.10;;;;;;;;;;5093734;28;20260;-61
2022/03/10 14:41:05;;;;;;;0.10;0.10;;;;;;;;;;5082732;28;20242;-63
2022/03/10 14:43:31;;;;;;;2.30;2.20;;;;;;;;;;5095466;28;20237;-62
2022/03/10 14:45:59;;;;;;;0.10;0.10;;;;;;;;;;5082893;28;20244;-60
2022/03/10 14:48:27;;;;;;;0.10;0.10;;;;;;;;;;5095223;28;20204;-62